sensor_id;sensor_type;location;lat;lon;timestamp;temperature;humidity
5631;DHT22;2837;50.990;7.124;2022-10-20T05:01:06;13.20;99.90
5631;DHT22;2837;50.990;7.124;2022-10-20T05:03:31;13.20;99.90
5631;DHT22;2837;50.990;7.124;2022-10-20T05:06:17;13.20;99.90
5631;DHT22;2837;50.990;7.124;2022-10-20T05:08:44;13.20;99.90
5631;DHT22;2837;50.990;7.124;2022-10-20T05:11:15;13.20;99.90
5631;DHT22;2837;50.990;7.124;2022-10-20T05:13:41;13.20;99.90
5631;DHT22;2837;50.990;7.124;2022-10-20T05:16:07;13.20;99.90
5631;DHT22;2837;50.990;7.124;2022-10-20T05:18:33;13.20;99.90
5631;DHT22;2837;50.990;7.124;2022-10-20T05:21:04;13.20;99.90
5631;DHT22;2837;50.990;7.124;2022-10-20T05:23:29;13.20;99.90
5631;DHT22;2837;50.990;7.124;2022-10-20T05:25:55;13.20;99.90
5631;DHT22;2837;50.990;7.124;2022-10-20T05:28:20;13.30;99.90
5631;DHT22;2837;50.990;7.124;2022-10-20T05:30:46;13.30;99.90
5631;DHT22;2837;50.990;7.124;2022-10-20T05:33:11;13.30;99.90
5631;DHT22;2837;50.990;7.124;2022-10-20T05:35:37;13.40;99.90
5631;DHT22;2837;50.990;7.124;2022-10-20T05:38:02;13.30;99.90
5631;DHT22;2837;50.990;7.124;2022-10-20T05:40:28;13.30;99.90
5631;DHT22;2837;50.990;7.124;2022-10-20T05:42:53;13.30;99.90
5631;DHT22;2837;50.990;7.124;2022-10-20T05:45:19;13.30;99.90
5631;DHT22;2837;50.990;7.124;2022-10-20T05:47:44;13.30;99.90
5631;DHT22;2837;50.990;7.124;2022-10-20T05:50:11;13.30;99.90
5631;DHT22;2837;50.990;7.124;2022-10-20T05:52:36;13.30;99.90
5631;DHT22;2837;50.990;7.124;2022-10-20T05:55:03;13.30;99.90
5631;DHT22;2837;50.990;7.124;2022-10-20T05:57:29;13.40;99.90
5631;DHT22;2837;50.990;7.124;2022-10-20T05:59:54;13.40;99.90
5631;DHT22;2837;50.990;7.124;2022-10-20T06:02:20;13.30;99.90
5631;DHT22;2837;50.990;7.124;2022-10-20T06:04:46;13.30;99.90
5631;DHT22;2837;50.990;7.124;2022-10-20T06:07:12;13.30;99.90
5631;DHT22;2837;50.990;7.124;2022-10-20T06:09:38;13.20;99.90
5631;DHT22;2837;50.990;7.124;2022-10-20T06:12:05;13.30;99.90
5631;DHT22;2837;50.990;7.124;2022-10-20T06:14:31;13.20;99.90
5631;DHT22;2837;50.990;7.124;2022-10-20T06:16:56;13.30;99.90
5631;DHT22;2837;50.990;7.124;2022-10-20T06:19:23;13.30;99.90
5631;DHT22;2837;50.990;7.124;2022-10-20T06:21:49;13.30;99.90
5631;DHT22;2837;50.990;7.124;2022-10-20T06:24:14;13.40;99.90
5631;DHT22;2837;50.990;7.124;2022-10-20T06:26:42;13.40;99.90
5631;DHT22;2837;50.990;7.124;2022-10-20T06:29:11;13.30;99.90
5631;DHT22;2837;50.990;7.124;2022-10-20T06:31:39;13.30;99.90
5631;DHT22;2837;50.990;7.124;2022-10-20T06:34:07;13.40;99.90
5631;DHT22;2837;50.990;7.124;2022-10-20T06:36:35;13.40;99.90
5631;DHT22;2837;50.990;7.124;2022-10-20T06:39:03;13.30;99.90
5631;DHT22;2837;50.990;7.124;2022-10-20T06:41:29;13.40;99.90
5631;DHT22;2837;50.990;7.124;2022-10-20T06:43:55;13.50;99.90
5631;DHT22;2837;50.990;7.124;2022-10-20T06:46:30;13.30;99.90
5631;DHT22;2837;50.990;7.124;2022-10-20T06:48:58;13.40;99.90
5631;DHT22;2837;50.990;7.124;2022-10-20T06:51:24;13.40;99.90
5631;DHT22;2837;50.990;7.124;2022-10-20T06:53:50;13.50;99.90
5631;DHT22;2837;50.990;7.124;2022-10-20T06:56:24;13.50;99.90
5631;DHT22;2837;50.990;7.124;2022-10-20T06:58:52;13.50;99.90
5631;DHT22;2837;50.990;7.124;2022-10-20T07:01:20;13.50;99.90
5631;DHT22;2837;50.990;7.124;2022-10-20T07:03:50;13.50;99.90
5631;DHT22;2837;50.990;7.124;2022-10-20T07:06:23;13.50;99.90
5631;DHT22;2837;50.990;7.124;2022-10-20T07:08:48;13.50;99.90
5631;DHT22;2837;50.990;7.124;2022-10-20T07:11:19;13.50;99.90
5631;DHT22;2837;50.990;7.124;2022-10-20T07:13:46;13.50;99.90
5631;DHT22;2837;50.990;7.124;2022-10-20T07:16:21;13.60;99.90
5631;DHT22;2837;50.990;7.124;2022-10-20T07:18:48;13.60;99.90
5631;DHT22;2837;50.990;7.124;2022-10-20T07:21:16;13.60;99.90
5631;DHT22;2837;50.990;7.124;2022-10-20T07:23:42;13.60;99.90
5631;DHT22;2837;50.990;7.124;2022-10-20T07:26:12;13.70;99.90
5631;DHT22;2837;50.990;7.124;2022-10-20T07:28:43;13.70;99.90
5631;DHT22;2837;50.990;7.124;2022-10-20T07:31:19;13.70;99.90
5631;DHT22;2837;50.990;7.124;2022-10-20T07:33:45;13.70;99.90
5631;DHT22;2837;50.990;7.124;2022-10-20T07:36:19;13.70;99.90
5631;DHT22;2837;50.990;7.124;2022-10-20T07:38:46;13.70;99.90
5631;DHT22;2837;50.990;7.124;2022-10-20T07:41:12;13.80;99.90
5631;DHT22;2837;50.990;7.124;2022-10-20T07:43:38;13.80;99.90
5631;DHT22;2837;50.990;7.124;2022-10-20T07:46:05;13.80;99.90
5631;DHT22;2837;50.990;7.124;2022-10-20T07:48:31;13.80;99.90
5631;DHT22;2837;50.990;7.124;2022-10-20T07:53:38;13.80;99.90
5631;DHT22;2837;50.990;7.124;2022-10-20T07:56:04;13.90;99.90
5631;DHT22;2837;50.990;7.124;2022-10-20T07:58:29;13.90;99.90
5631;DHT22;2837;50.990;7.124;2022-10-20T08:00:55;14.00;99.90
5631;DHT22;2837;50.990;7.124;2022-10-20T08:03:20;13.90;99.90
5631;DHT22;2837;50.990;7.124;2022-10-20T08:05:46;14.00;99.90
5631;DHT22;2837;50.990;7.124;2022-10-20T08:08:11;14.00;99.90
5631;DHT22;2837;50.990;7.124;2022-10-20T08:10:37;14.00;99.90
5631;DHT22;2837;50.990;7.124;2022-10-20T08:13:03;14.00;99.90
5631;DHT22;2837;50.990;7.124;2022-10-20T08:15:28;14.00;99.90
5631;DHT22;2837;50.990;7.124;2022-10-20T08:17:54;14.00;99.90
5631;DHT22;2837;50.990;7.124;2022-10-20T08:20:19;14.00;99.90
5631;DHT22;2837;50.990;7.124;2022-10-20T08:22:46;14.10;99.90
5631;DHT22;2837;50.990;7.124;2022-10-20T08:25:14;14.10;99.90
5631;DHT22;2837;50.990;7.124;2022-10-20T08:27:40;14.10;99.90
5631;DHT22;2837;50.990;7.124;2022-10-20T08:30:06;14.10;99.90
5631;DHT22;2837;50.990;7.124;2022-10-20T08:32:32;14.10;99.90
5631;DHT22;2837;50.990;7.124;2022-10-20T08:34:57;14.20;99.90
5631;DHT22;2837;50.990;7.124;2022-10-20T08:37:23;14.20;99.90
5631;DHT22;2837;50.990;7.124;2022-10-20T08:39:49;14.20;99.90
5631;DHT22;2837;50.990;7.124;2022-10-20T08:42:15;14.20;99.90
5631;DHT22;2837;50.990;7.124;2022-10-20T08:44:43;14.30;99.90
5631;DHT22;2837;50.990;7.124;2022-10-20T08:47:23;14.30;99.90
5631;DHT22;2837;50.990;7.124;2022-10-20T08:49:50;14.30;99.90
5631;DHT22;2837;50.990;7.124;2022-10-20T08:52:16;14.40;99.90
5631;DHT22;2837;50.990;7.124;2022-10-20T08:54:43;14.40;99.90
5631;DHT22;2837;50.990;7.124;2022-10-20T08:57:22;14.40;99.90
5631;DHT22;2837;50.990;7.124;2022-10-20T08:59:55;14.40;99.90
5631;DHT22;2837;50.990;7.124;2022-10-20T09:02:33;14.40;99.90
5631;DHT22;2837;50.990;7.124;2022-10-20T09:04:59;14.50;99.90
5631;DHT22;2837;50.990;7.124;2022-10-20T09:07:28;14.50;99.90
5631;DHT22;2837;50.990;7.124;2022-10-20T09:10:47;14.50;99.90
5631;DHT22;2837;50.990;7.124;2022-10-20T09:12:47;14.60;99.90
5631;DHT22;2837;50.990;7.124;2022-10-20T09:15:15;14.50;99.90
5631;DHT22;2837;50.990;7.124;2022-10-20T09:17:47;14.50;99.90
5631;DHT22;2837;50.990;7.124;2022-10-20T09:20:42;14.40;99.90
5631;DHT22;2837;50.990;7.124;2022-10-20T09:23:11;14.40;99.90
5631;DHT22;2837;50.990;7.124;2022-10-20T09:25:36;14.40;99.90
5631;DHT22;2837;50.990;7.124;2022-10-20T09:28:02;14.40;99.90
5631;DHT22;2837;50.990;7.124;2022-10-20T09:32:53;14.50;99.90
5631;DHT22;2837;50.990;7.124;2022-10-20T09:35:21;14.50;99.90
5631;DHT22;2837;50.990;7.124;2022-10-20T09:38:15;14.60;99.90
5631;DHT22;2837;50.990;7.124;2022-10-20T09:43:27;14.60;99.90
5631;DHT22;2837;50.990;7.124;2022-10-20T09:45:55;14.60;99.90
5631;DHT22;2837;50.990;7.124;2022-10-20T09:48:28;14.70;99.90
5631;DHT22;2837;50.990;7.124;2022-10-20T09:50:56;14.70;99.90
5631;DHT22;2837;50.990;7.124;2022-10-20T09:53:27;14.80;99.90
5631;DHT22;2837;50.990;7.124;2022-10-20T09:55:53;14.80;99.90
5631;DHT22;2837;50.990;7.124;2022-10-20T09:58:34;14.90;99.90
5631;DHT22;2837;50.990;7.124;2022-10-20T10:01:06;14.80;99.90
5631;DHT22;2837;50.990;7.124;2022-10-20T10:03:40;14.80;99.90
5631;DHT22;2837;50.990;7.124;2022-10-20T10:09:26;15.00;99.90
5631;DHT22;2837;50.990;7.124;2022-10-20T10:14:26;15.00;99.90
5631;DHT22;2837;50.990;7.124;2022-10-20T10:16:51;15.00;99.90
5631;DHT22;2837;50.990;7.124;2022-10-20T10:19:21;15.00;99.90
5631;DHT22;2837;50.990;7.124;2022-10-20T10:21:52;15.00;99.90
5631;DHT22;2837;50.990;7.124;2022-10-20T10:26:56;15.00;99.90
5631;DHT22;2837;50.990;7.124;2022-10-20T10:29:32;15.00;99.90
5631;DHT22;2837;50.990;7.124;2022-10-20T10:32:16;14.90;99.90
5631;DHT22;2837;50.990;7.124;2022-10-20T10:37:29;15.00;99.90
5631;DHT22;2837;50.990;7.124;2022-10-20T10:39:56;15.00;99.90
5631;DHT22;2837;50.990;7.124;2022-10-20T10:45:02;15.00;99.90
5631;DHT22;2837;50.990;7.124;2022-10-20T10:55:42;14.90;99.90
5631;DHT22;2837;50.990;7.124;2022-10-20T10:58:39;14.90;99.90
5631;DHT22;2837;50.990;7.124;2022-10-20T11:01:11;15.00;99.90
5631;DHT22;2837;50.990;7.124;2022-10-20T11:06:55;15.00;99.90
5631;DHT22;2837;50.990;7.124;2022-10-20T11:12:23;14.90;99.90
5631;DHT22;2837;50.990;7.124;2022-10-20T11:17:48;14.80;99.90
5631;DHT22;2837;50.990;7.124;2022-10-20T11:23:34;14.80;99.90
5631;DHT22;2837;50.990;7.124;2022-10-20T11:26:22;14.80;99.90
5631;DHT22;2837;50.990;7.124;2022-10-20T11:28:51;14.80;99.90
5631;DHT22;2837;50.990;7.124;2022-10-20T11:31:23;14.80;99.90
5631;DHT22;2837;50.990;7.124;2022-10-20T11:33:59;14.70;99.90
5631;DHT22;2837;50.990;7.124;2022-10-20T11:36:35;14.80;99.90
5631;DHT22;2837;50.990;7.124;2022-10-20T11:39:02;14.80;99.90
5631;DHT22;2837;50.990;7.124;2022-10-20T11:41:33;14.80;99.90
5631;DHT22;2837;50.990;7.124;2022-10-20T11:44:07;14.80;99.90
5631;DHT22;2837;50.990;7.124;2022-10-20T11:49:08;14.70;99.90
5631;DHT22;2837;50.990;7.124;2022-10-20T12:05:50;14.50;99.90
5631;DHT22;2837;50.990;7.124;2022-10-20T12:19:24;14.50;99.90
5631;DHT22;2837;50.990;7.124;2022-10-20T12:22:02;14.40;99.90
5631;DHT22;2837;50.990;7.124;2022-10-20T12:24:38;14.40;99.90
5631;DHT22;2837;50.990;7.124;2022-10-20T12:37:35;14.40;99.90
5631;DHT22;2837;50.990;7.124;2022-10-20T12:42:36;14.40;99.90
5631;DHT22;2837;50.990;7.124;2022-10-20T12:45:28;14.40;99.90
5631;DHT22;2837;50.990;7.124;2022-10-20T12:47:59;14.40;99.90
5631;DHT22;2837;50.990;7.124;2022-10-20T12:50:39;14.40;99.90
5631;DHT22;2837;50.990;7.124;2022-10-20T12:55:45;14.40;99.90
5631;DHT22;2837;50.990;7.124;2022-10-20T13:05:57;14.50;99.90
5631;DHT22;2837;50.990;7.124;2022-10-20T13:08:24;14.50;99.90
5631;DHT22;2837;50.990;7.124;2022-10-20T13:10:50;14.50;99.90
5631;DHT22;2837;50.990;7.124;2022-10-20T13:21:01;14.60;99.90
5631;DHT22;2837;50.990;7.124;2022-10-20T13:23:36;14.70;99.90
5631;DHT22;2837;50.990;7.124;2022-10-20T13:32:26;14.70;99.90
5631;DHT22;2837;50.990;7.124;2022-10-20T13:35:10;14.70;99.90
5631;DHT22;2837;50.990;7.124;2022-10-20T13:37:59;14.70;99.90
5631;DHT22;2837;50.990;7.124;2022-10-20T13:43:39;14.80;99.90
5631;DHT22;2837;50.990;7.124;2022-10-20T13:51:27;14.70;99.90
5631;DHT22;2837;50.990;7.124;2022-10-20T13:53:58;14.70;99.90
5631;DHT22;2837;50.990;7.124;2022-10-20T13:56:30;14.70;99.90
5631;DHT22;2837;50.990;7.124;2022-10-20T13:59:18;14.70;99.90
5631;DHT22;2837;50.990;7.124;2022-10-20T14:01:47;14.80;99.90
5631;DHT22;2837;50.990;7.124;2022-10-20T14:04:31;14.80;99.90
5631;DHT22;2837;50.990;7.124;2022-10-20T14:07:13;14.80;99.90
5631;DHT22;2837;50.990;7.124;2022-10-20T14:09:40;14.80;99.90
5631;DHT22;2837;50.990;7.124;2022-10-20T14:12:10;14.90;99.90
5631;DHT22;2837;50.990;7.124;2022-10-20T14:14:42;14.80;99.90
5631;DHT22;2837;50.990;7.124;2022-10-20T14:17:23;14.80;99.90
5631;DHT22;2837;50.990;7.124;2022-10-20T14:19:49;14.80;99.90
5631;DHT22;2837;50.990;7.124;2022-10-20T14:22:19;14.90;99.90
5631;DHT22;2837;50.990;7.124;2022-10-20T14:24:52;14.80;99.90
5631;DHT22;2837;50.990;7.124;2022-10-20T14:27:25;14.90;99.90
5631;DHT22;2837;50.990;7.124;2022-10-20T14:29:51;14.90;99.90
5631;DHT22;2837;50.990;7.124;2022-10-20T14:32:19;14.90;99.90
5631;DHT22;2837;50.990;7.124;2022-10-20T14:34:56;14.90;99.90
5631;DHT22;2837;50.990;7.124;2022-10-20T14:37:38;14.80;99.90
5631;DHT22;2837;50.990;7.124;2022-10-20T14:40:07;14.80;99.90
5631;DHT22;2837;50.990;7.124;2022-10-20T14:42:43;14.80;99.90
5631;DHT22;2837;50.990;7.124;2022-10-20T14:45:21;14.90;99.90
5631;DHT22;2837;50.990;7.124;2022-10-20T14:47:47;14.90;99.90
5631;DHT22;2837;50.990;7.124;2022-10-20T14:50:26;14.90;99.90
5631;DHT22;2837;50.990;7.124;2022-10-20T14:52:52;14.90;99.90
5631;DHT22;2837;50.990;7.124;2022-10-20T14:55:26;14.90;99.90
5631;DHT22;2837;50.990;7.124;2022-10-20T14:57:54;14.90;99.90
5631;DHT22;2837;50.990;7.124;2022-10-20T15:00:33;14.90;99.90
5631;DHT22;2837;50.990;7.124;2022-10-20T15:03:02;14.90;99.90
5631;DHT22;2837;50.990;7.124;2022-10-20T15:05:43;14.90;99.90
5631;DHT22;2837;50.990;7.124;2022-10-20T15:10:40;14.90;99.90
5631;DHT22;2837;50.990;7.124;2022-10-20T15:13:19;14.90;99.90
5631;DHT22;2837;50.990;7.124;2022-10-20T15:15:45;14.80;99.90
5631;DHT22;2837;50.990;7.124;2022-10-20T15:18:19;14.80;99.90
5631;DHT22;2837;50.990;7.124;2022-10-20T15:20:46;14.80;99.90
5631;DHT22;2837;50.990;7.124;2022-10-20T15:23:13;14.80;99.90
5631;DHT22;2837;50.990;7.124;2022-10-20T15:31:00;14.80;99.90
5631;DHT22;2837;50.990;7.124;2022-10-20T15:33:26;14.80;99.90
5631;DHT22;2837;50.990;7.124;2022-10-20T15:35:52;14.80;99.90
5631;DHT22;2837;50.990;7.124;2022-10-20T15:38:18;14.80;99.90
5631;DHT22;2837;50.990;7.124;2022-10-20T15:40:44;14.80;99.90
5631;DHT22;2837;50.990;7.124;2022-10-20T15:43:15;14.80;99.90
5631;DHT22;2837;50.990;7.124;2022-10-20T15:46:01;14.80;99.90
5631;DHT22;2837;50.990;7.124;2022-10-20T15:48:27;14.80;99.90
5631;DHT22;2837;50.990;7.124;2022-10-20T15:50:53;14.80;99.90
5631;DHT22;2837;50.990;7.124;2022-10-20T15:53:19;14.70;99.90
5631;DHT22;2837;50.990;7.124;2022-10-20T15:55:45;14.80;99.90
5631;DHT22;2837;50.990;7.124;2022-10-20T15:58:10;14.70;99.90
5631;DHT22;2837;50.990;7.124;2022-10-20T16:00:36;14.80;99.90
5631;DHT22;2837;50.990;7.124;2022-10-20T16:03:03;14.70;99.90
5631;DHT22;2837;50.990;7.124;2022-10-20T16:05:29;14.70;99.90
5631;DHT22;2837;50.990;7.124;2022-10-20T16:07:54;14.80;99.90
5631;DHT22;2837;50.990;7.124;2022-10-20T16:10:22;14.70;99.90
5631;DHT22;2837;50.990;7.124;2022-10-20T16:12:48;14.70;99.90
5631;DHT22;2837;50.990;7.124;2022-10-20T16:15:14;14.60;99.90
5631;DHT22;2837;50.990;7.124;2022-10-20T16:17:40;14.60;99.90
5631;DHT22;2837;50.990;7.124;2022-10-20T16:20:06;14.70;99.90
5631;DHT22;2837;50.990;7.124;2022-10-20T16:22:32;14.70;99.90
5631;DHT22;2837;50.990;7.124;2022-10-20T16:24:58;14.70;99.90
5631;DHT22;2837;50.990;7.124;2022-10-20T16:27:31;14.60;99.90
5631;DHT22;2837;50.990;7.124;2022-10-20T16:29:56;14.60;99.90
5631;DHT22;2837;50.990;7.124;2022-10-20T16:32:22;14.50;99.90
5631;DHT22;2837;50.990;7.124;2022-10-20T16:34:48;14.60;99.90
5631;DHT22;2837;50.990;7.124;2022-10-20T16:37:13;14.60;99.90
5631;DHT22;2837;50.990;7.124;2022-10-20T16:39:39;14.60;99.90
5631;DHT22;2837;50.990;7.124;2022-10-20T16:42:05;14.60;99.90
5631;DHT22;2837;50.990;7.124;2022-10-20T16:44:30;14.50;99.90
5631;DHT22;2837;50.990;7.124;2022-10-20T16:46:56;14.60;99.90
5631;DHT22;2837;50.990;7.124;2022-10-20T16:49:22;14.70;99.90
5631;DHT22;2837;50.990;7.124;2022-10-20T16:51:48;14.60;99.90
5631;DHT22;2837;50.990;7.124;2022-10-20T16:54:13;14.60;99.90
5631;DHT22;2837;50.990;7.124;2022-10-20T16:56:40;14.50;99.90
5631;DHT22;2837;50.990;7.124;2022-10-20T16:59:05;14.50;99.90
5631;DHT22;2837;50.990;7.124;2022-10-20T17:01:31;14.50;99.90
5631;DHT22;2837;50.990;7.124;2022-10-20T17:03:56;14.60;99.90
5631;DHT22;2837;50.990;7.124;2022-10-20T17:06:23;14.60;99.90
5631;DHT22;2837;50.990;7.124;2022-10-20T17:08:50;14.60;99.90
5631;DHT22;2837;50.990;7.124;2022-10-20T17:11:22;14.60;99.90
5631;DHT22;2837;50.990;7.124;2022-10-20T17:13:48;14.50;99.90
5631;DHT22;2837;50.990;7.124;2022-10-20T17:16:19;14.50;99.90
5631;DHT22;2837;50.990;7.124;2022-10-20T17:18:45;14.50;99.90
5631;DHT22;2837;50.990;7.124;2022-10-20T17:21:12;14.50;99.90
5631;DHT22;2837;50.990;7.124;2022-10-20T17:23:40;14.50;99.90
5631;DHT22;2837;50.990;7.124;2022-10-20T17:26:07;14.60;99.90
5631;DHT22;2837;50.990;7.124;2022-10-20T17:28:34;14.50;99.90
5631;DHT22;2837;50.990;7.124;2022-10-20T17:31:00;14.60;99.90
5631;DHT22;2837;50.990;7.124;2022-10-20T17:33:27;14.60;99.90
5631;DHT22;2837;50.990;7.124;2022-10-20T17:35:54;14.50;99.90
5631;DHT22;2837;50.990;7.124;2022-10-20T17:38:21;14.50;99.90
5631;DHT22;2837;50.990;7.124;2022-10-20T17:40:47;14.60;99.90
5631;DHT22;2837;50.990;7.124;2022-10-20T17:43:13;14.50;99.90
5631;DHT22;2837;50.990;7.124;2022-10-20T17:45:38;14.50;99.90
5631;DHT22;2837;50.990;7.124;2022-10-20T17:48:04;14.50;99.90
5631;DHT22;2837;50.990;7.124;2022-10-20T17:50:30;14.50;99.90
5631;DHT22;2837;50.990;7.124;2022-10-20T17:52:58;14.50;99.90
5631;DHT22;2837;50.990;7.124;2022-10-20T17:55:24;14.50;99.90
5631;DHT22;2837;50.990;7.124;2022-10-20T17:57:50;14.50;99.90
5631;DHT22;2837;50.990;7.124;2022-10-20T18:00:16;14.50;99.90
5631;DHT22;2837;50.990;7.124;2022-10-20T18:02:48;14.50;99.90
5631;DHT22;2837;50.990;7.124;2022-10-20T18:05:14;14.50;99.90
5631;DHT22;2837;50.990;7.124;2022-10-20T18:07:40;14.50;99.90
5631;DHT22;2837;50.990;7.124;2022-10-20T18:10:06;14.50;99.90
5631;DHT22;2837;50.990;7.124;2022-10-20T18:12:32;14.50;99.90
5631;DHT22;2837;50.990;7.124;2022-10-20T18:14:58;14.50;99.90
5631;DHT22;2837;50.990;7.124;2022-10-20T18:17:23;14.60;99.90
5631;DHT22;2837;50.990;7.124;2022-10-20T18:19:49;14.60;99.90
5631;DHT22;2837;50.990;7.124;2022-10-20T18:22:15;14.60;99.90
5631;DHT22;2837;50.990;7.124;2022-10-20T18:24:40;14.60;99.90
5631;DHT22;2837;50.990;7.124;2022-10-20T18:27:06;14.60;99.90
5631;DHT22;2837;50.990;7.124;2022-10-20T18:29:31;14.60;99.90
5631;DHT22;2837;50.990;7.124;2022-10-20T18:31:57;14.60;99.90
5631;DHT22;2837;50.990;7.124;2022-10-20T18:34:23;14.50;99.90
5631;DHT22;2837;50.990;7.124;2022-10-20T18:36:50;14.50;99.90
5631;DHT22;2837;50.990;7.124;2022-10-20T18:39:16;14.50;99.90
5631;DHT22;2837;50.990;7.124;2022-10-20T18:41:42;14.60;99.90
5631;DHT22;2837;50.990;7.124;2022-10-20T18:44:14;14.60;99.90
5631;DHT22;2837;50.990;7.124;2022-10-20T18:46:40;14.60;99.90
5631;DHT22;2837;50.990;7.124;2022-10-20T18:49:06;14.60;99.90
5631;DHT22;2837;50.990;7.124;2022-10-20T18:51:33;14.60;99.90
5631;DHT22;2837;50.990;7.124;2022-10-20T18:54:00;14.60;99.90
5631;DHT22;2837;50.990;7.124;2022-10-20T18:56:28;14.50;99.90
5631;DHT22;2837;50.990;7.124;2022-10-20T18:59:00;14.60;99.90
5631;DHT22;2837;50.990;7.124;2022-10-20T19:01:28;14.60;99.90
5631;DHT22;2837;50.990;7.124;2022-10-20T19:03:56;14.50;99.90
5631;DHT22;2837;50.990;7.124;2022-10-20T19:06:34;14.50;99.90
5631;DHT22;2837;50.990;7.124;2022-10-20T19:09:03;14.60;99.90
5631;DHT22;2837;50.990;7.124;2022-10-20T19:11:32;14.60;99.90
5631;DHT22;2837;50.990;7.124;2022-10-20T19:13:58;14.60;99.90
5631;DHT22;2837;50.990;7.124;2022-10-20T19:16:26;14.50;99.90
5631;DHT22;2837;50.990;7.124;2022-10-20T19:18:54;14.50;99.90
5631;DHT22;2837;50.990;7.124;2022-10-20T19:21:21;14.60;99.90
5631;DHT22;2837;50.990;7.124;2022-10-20T19:23:49;14.60;99.90
5631;DHT22;2837;50.990;7.124;2022-10-20T19:26:27;14.50;99.90
5631;DHT22;2837;50.990;7.124;2022-10-20T19:28:59;14.60;99.90
5631;DHT22;2837;50.990;7.124;2022-10-20T19:31:26;14.60;99.90
5631;DHT22;2837;50.990;7.124;2022-10-20T19:33:56;14.50;99.90
5631;DHT22;2837;50.990;7.124;2022-10-20T19:36:22;14.50;99.90
5631;DHT22;2837;50.990;7.124;2022-10-20T19:38:48;14.60;99.90
5631;DHT22;2837;50.990;7.124;2022-10-20T19:41:15;14.60;99.90
5631;DHT22;2837;50.990;7.124;2022-10-20T19:43:40;14.60;99.90
5631;DHT22;2837;50.990;7.124;2022-10-20T19:46:07;14.80;99.90
5631;DHT22;2837;50.990;7.124;2022-10-20T19:48:35;14.60;99.90
5631;DHT22;2837;50.990;7.124;2022-10-20T19:51:01;14.50;99.90
5631;DHT22;2837;50.990;7.124;2022-10-20T19:53:26;14.60;99.90
5631;DHT22;2837;50.990;7.124;2022-10-20T19:55:52;14.50;99.90
5631;DHT22;2837;50.990;7.124;2022-10-20T19:58:19;14.60;99.90
5631;DHT22;2837;50.990;7.124;2022-10-20T20:00:48;14.60;99.90
5631;DHT22;2837;50.990;7.124;2022-10-20T20:03:14;14.70;99.90
5631;DHT22;2837;50.990;7.124;2022-10-20T20:05:40;14.60;99.90
5631;DHT22;2837;50.990;7.124;2022-10-20T20:08:06;14.60;99.90
5631;DHT22;2837;50.990;7.124;2022-10-20T20:10:32;14.60;99.90
5631;DHT22;2837;50.990;7.124;2022-10-20T20:12:58;14.60;99.90
5631;DHT22;2837;50.990;7.124;2022-10-20T20:15:24;14.50;99.90
5631;DHT22;2837;50.990;7.124;2022-10-20T20:17:49;14.60;99.90
5631;DHT22;2837;50.990;7.124;2022-10-20T20:20:15;14.60;99.90
5631;DHT22;2837;50.990;7.124;2022-10-20T20:22:40;14.50;99.90
5631;DHT22;2837;50.990;7.124;2022-10-20T20:25:06;14.50;99.90
5631;DHT22;2837;50.990;7.124;2022-10-20T20:27:32;14.50;99.90
5631;DHT22;2837;50.990;7.124;2022-10-20T20:29:57;14.50;99.90
5631;DHT22;2837;50.990;7.124;2022-10-20T20:32:24;14.50;99.90
5631;DHT22;2837;50.990;7.124;2022-10-20T20:34:50;14.50;99.90
5631;DHT22;2837;50.990;7.124;2022-10-20T20:37:16;14.50;99.90
5631;DHT22;2837;50.990;7.124;2022-10-20T20:39:41;14.70;99.90
5631;DHT22;2837;50.990;7.124;2022-10-20T20:42:07;14.60;99.90
5631;DHT22;2837;50.990;7.124;2022-10-20T20:44:33;14.60;99.90
5631;DHT22;2837;50.990;7.124;2022-10-20T20:46:58;14.60;99.90
5631;DHT22;2837;50.990;7.124;2022-10-20T20:49:24;14.60;99.90
5631;DHT22;2837;50.990;7.124;2022-10-20T20:51:49;14.60;99.90
5631;DHT22;2837;50.990;7.124;2022-10-20T20:54:15;14.60;99.90
5631;DHT22;2837;50.990;7.124;2022-10-20T20:56:41;14.60;99.90
5631;DHT22;2837;50.990;7.124;2022-10-20T20:59:07;14.70;99.90
